sensor_id;sensor_type;location;lat;lon;timestamp;temperature;humidity
13569;DHT22;6856;51.460;7.158;2022-07-21T00:00:27;25.60;56.50
13569;DHT22;6856;51.460;7.158;2022-07-21T00:03:05;25.60;56.50
13569;DHT22;6856;51.460;7.158;2022-07-21T00:05:38;25.60;56.10
13569;DHT22;6856;51.460;7.158;2022-07-21T00:08:12;25.60;56.00
13569;DHT22;6856;51.460;7.158;2022-07-21T00:10:46;25.50;55.90
13569;DHT22;6856;51.460;7.158;2022-07-21T00:13:21;25.50;55.90
13569;DHT22;6856;51.460;7.158;2022-07-21T00:15:55;25.40;55.90
13569;DHT22;6856;51.460;7.158;2022-07-21T00:18:30;25.40;56.00
13569;DHT22;6856;51.460;7.158;2022-07-21T00:21:05;25.30;55.90
13569;DHT22;6856;51.460;7.158;2022-07-21T00:23:38;25.30;55.90
13569;DHT22;6856;51.460;7.158;2022-07-21T00:26:12;25.20;55.80
13569;DHT22;6856;51.460;7.158;2022-07-21T00:28:48;25.20;55.80
13569;DHT22;6856;51.460;7.158;2022-07-21T00:31:23;25.10;55.90
13569;DHT22;6856;51.460;7.158;2022-07-21T00:33:57;25.00;56.00
13569;DHT22;6856;51.460;7.158;2022-07-21T00:36:30;25.00;56.10
13569;DHT22;6856;51.460;7.158;2022-07-21T00:39:04;24.90;56.30
13569;DHT22;6856;51.460;7.158;2022-07-21T00:41:37;24.80;56.20
13569;DHT22;6856;51.460;7.158;2022-07-21T00:44:20;24.90;56.50
13569;DHT22;6856;51.460;7.158;2022-07-21T00:46:55;24.80;56.70
13569;DHT22;6856;51.460;7.158;2022-07-21T00:49:31;24.80;56.60
13569;DHT22;6856;51.460;7.158;2022-07-21T00:52:05;24.70;56.40
13569;DHT22;6856;51.460;7.158;2022-07-21T00:54:38;24.70;56.70
13569;DHT22;6856;51.460;7.158;2022-07-21T00:57:13;24.70;56.80
13569;DHT22;6856;51.460;7.158;2022-07-21T00:59:49;24.60;56.90
13569;DHT22;6856;51.460;7.158;2022-07-21T01:02:23;24.70;57.20
13569;DHT22;6856;51.460;7.158;2022-07-21T01:04:59;24.60;57.30
13569;DHT22;6856;51.460;7.158;2022-07-21T01:07:33;24.60;57.20
13569;DHT22;6856;51.460;7.158;2022-07-21T01:10:08;24.60;57.30
13569;DHT22;6856;51.460;7.158;2022-07-21T01:12:43;24.60;57.40
13569;DHT22;6856;51.460;7.158;2022-07-21T01:15:19;24.50;57.40
13569;DHT22;6856;51.460;7.158;2022-07-21T01:17:53;24.50;57.60
13569;DHT22;6856;51.460;7.158;2022-07-21T01:20:27;24.50;57.60
13569;DHT22;6856;51.460;7.158;2022-07-21T01:23:08;24.50;57.80
13569;DHT22;6856;51.460;7.158;2022-07-21T01:25:46;24.40;57.80
13569;DHT22;6856;51.460;7.158;2022-07-21T01:28:20;24.40;58.20
13569;DHT22;6856;51.460;7.158;2022-07-21T01:30:54;24.40;57.90
13569;DHT22;6856;51.460;7.158;2022-07-21T01:33:27;24.40;58.00
13569;DHT22;6856;51.460;7.158;2022-07-21T01:36:01;24.30;57.90
13569;DHT22;6856;51.460;7.158;2022-07-21T01:38:36;24.30;58.00
13569;DHT22;6856;51.460;7.158;2022-07-21T01:41:28;24.30;58.10
13569;DHT22;6856;51.460;7.158;2022-07-21T01:44:04;24.20;58.20
13569;DHT22;6856;51.460;7.158;2022-07-21T01:46:41;24.20;58.20
13569;DHT22;6856;51.460;7.158;2022-07-21T01:49:18;24.20;58.40
13569;DHT22;6856;51.460;7.158;2022-07-21T01:51:52;24.10;58.50
13569;DHT22;6856;51.460;7.158;2022-07-21T01:54:27;24.10;58.70
13569;DHT22;6856;51.460;7.158;2022-07-21T01:57:01;24.00;58.60
13569;DHT22;6856;51.460;7.158;2022-07-21T01:59:34;24.00;58.80
13569;DHT22;6856;51.460;7.158;2022-07-21T02:02:09;24.00;59.00
13569;DHT22;6856;51.460;7.158;2022-07-21T02:04:42;23.90;59.00
13569;DHT22;6856;51.460;7.158;2022-07-21T02:07:16;23.90;59.00
13569;DHT22;6856;51.460;7.158;2022-07-21T02:09:51;23.90;58.80
13569;DHT22;6856;51.460;7.158;2022-07-21T02:12:25;23.80;58.80
13569;DHT22;6856;51.460;7.158;2022-07-21T02:14:58;23.70;58.70
13569;DHT22;6856;51.460;7.158;2022-07-21T02:17:32;23.70;58.70
13569;DHT22;6856;51.460;7.158;2022-07-21T02:20:06;23.60;58.80
13569;DHT22;6856;51.460;7.158;2022-07-21T02:22:40;23.60;59.10
13569;DHT22;6856;51.460;7.158;2022-07-21T02:25:19;23.60;59.00
13569;DHT22;6856;51.460;7.158;2022-07-21T02:27:52;23.50;59.00
13569;DHT22;6856;51.460;7.158;2022-07-21T02:30:30;23.50;59.00
13569;DHT22;6856;51.460;7.158;2022-07-21T02:33:04;23.50;59.10
13569;DHT22;6856;51.460;7.158;2022-07-21T02:35:38;23.40;59.10
13569;DHT22;6856;51.460;7.158;2022-07-21T02:38:12;23.40;59.20
13569;DHT22;6856;51.460;7.158;2022-07-21T02:40:48;23.40;59.30
13569;DHT22;6856;51.460;7.158;2022-07-21T02:43:28;23.40;59.40
13569;DHT22;6856;51.460;7.158;2022-07-21T02:46:01;23.30;59.40
13569;DHT22;6856;51.460;7.158;2022-07-21T02:48:35;23.30;59.40
13569;DHT22;6856;51.460;7.158;2022-07-21T02:51:08;23.30;59.40
13569;DHT22;6856;51.460;7.158;2022-07-21T02:53:44;23.30;59.40
13569;DHT22;6856;51.460;7.158;2022-07-21T02:56:19;23.30;59.50
13569;DHT22;6856;51.460;7.158;2022-07-21T02:58:53;23.20;59.30
13569;DHT22;6856;51.460;7.158;2022-07-21T03:01:27;23.20;59.30
13569;DHT22;6856;51.460;7.158;2022-07-21T03:04:00;23.10;59.30
13569;DHT22;6856;51.460;7.158;2022-07-21T03:06:34;23.10;59.40
13569;DHT22;6856;51.460;7.158;2022-07-21T03:09:10;23.10;59.50
13569;DHT22;6856;51.460;7.158;2022-07-21T03:11:44;23.00;59.60
13569;DHT22;6856;51.460;7.158;2022-07-21T03:14:18;23.00;59.70
13569;DHT22;6856;51.460;7.158;2022-07-21T03:16:51;23.00;59.90
13569;DHT22;6856;51.460;7.158;2022-07-21T03:19:25;22.90;60.80
13569;DHT22;6856;51.460;7.158;2022-07-21T03:21:58;22.90;60.30
13569;DHT22;6856;51.460;7.158;2022-07-21T03:24:33;22.90;60.10
13569;DHT22;6856;51.460;7.158;2022-07-21T03:27:08;22.90;60.20
13569;DHT22;6856;51.460;7.158;2022-07-21T03:29:41;22.80;60.30
13569;DHT22;6856;51.460;7.158;2022-07-21T03:32:15;22.80;60.20
13569;DHT22;6856;51.460;7.158;2022-07-21T03:34:48;22.80;60.50
13569;DHT22;6856;51.460;7.158;2022-07-21T03:37:22;22.80;60.50
13569;DHT22;6856;51.460;7.158;2022-07-21T03:39:55;22.80;60.50
13569;DHT22;6856;51.460;7.158;2022-07-21T03:42:31;22.80;60.70
13569;DHT22;6856;51.460;7.158;2022-07-21T03:45:05;22.80;60.80
13569;DHT22;6856;51.460;7.158;2022-07-21T03:47:39;22.70;60.90
13569;DHT22;6856;51.460;7.158;2022-07-21T03:50:13;22.70;60.90
13569;DHT22;6856;51.460;7.158;2022-07-21T03:52:49;22.70;61.00
13569;DHT22;6856;51.460;7.158;2022-07-21T03:55:23;22.70;60.90
13569;DHT22;6856;51.460;7.158;2022-07-21T03:57:59;22.70;61.20
13569;DHT22;6856;51.460;7.158;2022-07-21T04:00:36;22.70;61.30
13569;DHT22;6856;51.460;7.158;2022-07-21T04:03:12;22.60;61.30
13569;DHT22;6856;51.460;7.158;2022-07-21T04:05:46;22.60;61.20
13569;DHT22;6856;51.460;7.158;2022-07-21T04:08:19;22.60;61.30
13569;DHT22;6856;51.460;7.158;2022-07-21T04:10:53;22.60;61.40
13569;DHT22;6856;51.460;7.158;2022-07-21T04:13:28;22.60;61.50
13569;DHT22;6856;51.460;7.158;2022-07-21T04:16:01;22.60;61.60
13569;DHT22;6856;51.460;7.158;2022-07-21T04:18:35;22.60;61.70
13569;DHT22;6856;51.460;7.158;2022-07-21T04:21:09;22.50;61.60
13569;DHT22;6856;51.460;7.158;2022-07-21T04:23:42;22.60;61.90
13569;DHT22;6856;51.460;7.158;2022-07-21T04:26:16;22.60;61.90
13569;DHT22;6856;51.460;7.158;2022-07-21T04:28:50;22.60;61.90
13569;DHT22;6856;51.460;7.158;2022-07-21T04:31:24;22.60;62.00
13569;DHT22;6856;51.460;7.158;2022-07-21T04:33:59;22.60;62.00
13569;DHT22;6856;51.460;7.158;2022-07-21T04:36:32;22.60;62.70
13569;DHT22;6856;51.460;7.158;2022-07-21T04:39:06;22.50;62.10
13569;DHT22;6856;51.460;7.158;2022-07-21T04:41:39;22.50;62.20
13569;DHT22;6856;51.460;7.158;2022-07-21T04:44:14;22.50;62.40
13569;DHT22;6856;51.460;7.158;2022-07-21T04:46:47;22.50;62.70
13569;DHT22;6856;51.460;7.158;2022-07-21T04:49:21;22.70;62.80
13569;DHT22;6856;51.460;7.158;2022-07-21T04:51:55;22.50;62.80
13569;DHT22;6856;51.460;7.158;2022-07-21T04:54:36;22.50;62.90
13569;DHT22;6856;51.460;7.158;2022-07-21T04:57:09;22.50;62.90
13569;DHT22;6856;51.460;7.158;2022-07-21T04:59:44;22.50;63.10
13569;DHT22;6856;51.460;7.158;2022-07-21T05:02:21;22.50;63.30
13569;DHT22;6856;51.460;7.158;2022-07-21T05:04:54;22.50;63.40
13569;DHT22;6856;51.460;7.158;2022-07-21T05:07:28;22.50;63.30
13569;DHT22;6856;51.460;7.158;2022-07-21T05:10:04;22.50;63.40
13569;DHT22;6856;51.460;7.158;2022-07-21T05:12:38;22.50;63.50
13569;DHT22;6856;51.460;7.158;2022-07-21T05:15:13;22.50;63.50
13569;DHT22;6856;51.460;7.158;2022-07-21T05:17:48;22.50;63.70
13569;DHT22;6856;51.460;7.158;2022-07-21T05:20:21;22.50;63.60
13569;DHT22;6856;51.460;7.158;2022-07-21T05:22:54;22.50;64.50
13569;DHT22;6856;51.460;7.158;2022-07-21T05:25:28;22.50;64.00
13569;DHT22;6856;51.460;7.158;2022-07-21T05:28:05;22.50;64.10
13569;DHT22;6856;51.460;7.158;2022-07-21T05:30:40;22.50;64.40
13569;DHT22;6856;51.460;7.158;2022-07-21T05:33:14;22.50;64.30
13569;DHT22;6856;51.460;7.158;2022-07-21T05:35:47;22.50;64.30
13569;DHT22;6856;51.460;7.158;2022-07-21T05:38:21;22.50;64.50
13569;DHT22;6856;51.460;7.158;2022-07-21T05:40:59;22.50;64.50
13569;DHT22;6856;51.460;7.158;2022-07-21T05:43:34;22.50;64.50
13569;DHT22;6856;51.460;7.158;2022-07-21T05:46:09;22.50;64.60
13569;DHT22;6856;51.460;7.158;2022-07-21T05:48:43;22.50;64.70
13569;DHT22;6856;51.460;7.158;2022-07-21T05:51:17;22.50;64.70
13569;DHT22;6856;51.460;7.158;2022-07-21T05:53:50;22.60;64.70
13569;DHT22;6856;51.460;7.158;2022-07-21T05:56:23;22.60;64.60
13569;DHT22;6856;51.460;7.158;2022-07-21T05:58:57;22.60;64.90
13569;DHT22;6856;51.460;7.158;2022-07-21T06:01:32;22.60;64.50
13569;DHT22;6856;51.460;7.158;2022-07-21T06:04:06;22.60;64.60
13569;DHT22;6856;51.460;7.158;2022-07-21T06:06:40;22.50;64.70
13569;DHT22;6856;51.460;7.158;2022-07-21T06:09:13;22.50;64.80
13569;DHT22;6856;51.460;7.158;2022-07-21T06:11:47;22.50;64.80
13569;DHT22;6856;51.460;7.158;2022-07-21T06:14:20;22.50;65.10
13569;DHT22;6856;51.460;7.158;2022-07-21T06:16:56;22.50;65.20
13569;DHT22;6856;51.460;7.158;2022-07-21T06:19:29;22.60;65.20
13569;DHT22;6856;51.460;7.158;2022-07-21T06:22:03;22.60;65.20
13569;DHT22;6856;51.460;7.158;2022-07-21T06:24:37;22.60;65.20
13569;DHT22;6856;51.460;7.158;2022-07-21T06:27:12;22.60;65.30
13569;DHT22;6856;51.460;7.158;2022-07-21T06:29:46;22.60;65.30
13569;DHT22;6856;51.460;7.158;2022-07-21T06:32:24;22.60;64.80
13569;DHT22;6856;51.460;7.158;2022-07-21T06:34:58;22.70;65.60
13569;DHT22;6856;51.460;7.158;2022-07-21T06:37:32;22.70;65.20
13569;DHT22;6856;51.460;7.158;2022-07-21T06:40:07;22.70;65.30
13569;DHT22;6856;51.460;7.158;2022-07-21T06:42:42;22.70;65.60
13569;DHT22;6856;51.460;7.158;2022-07-21T06:45:37;22.80;65.50
13569;DHT22;6856;51.460;7.158;2022-07-21T06:48:13;22.80;65.50
13569;DHT22;6856;51.460;7.158;2022-07-21T06:50:48;22.80;66.00
13569;DHT22;6856;51.460;7.158;2022-07-21T06:53:23;22.80;65.00
13569;DHT22;6856;51.460;7.158;2022-07-21T06:55:58;22.80;64.70
13569;DHT22;6856;51.460;7.158;2022-07-21T06:58:35;22.80;64.70
13569;DHT22;6856;51.460;7.158;2022-07-21T07:01:12;22.80;64.90
13569;DHT22;6856;51.460;7.158;2022-07-21T07:03:51;22.90;64.90
13569;DHT22;6856;51.460;7.158;2022-07-21T07:06:25;22.90;64.90
13569;DHT22;6856;51.460;7.158;2022-07-21T07:09:00;22.90;64.90
13569;DHT22;6856;51.460;7.158;2022-07-21T07:11:39;22.90;64.70
13569;DHT22;6856;51.460;7.158;2022-07-21T07:14:33;22.90;64.90
13569;DHT22;6856;51.460;7.158;2022-07-21T07:17:08;22.90;64.60
13569;DHT22;6856;51.460;7.158;2022-07-21T07:19:44;23.00;64.60
13569;DHT22;6856;51.460;7.158;2022-07-21T07:22:24;23.00;64.50
13569;DHT22;6856;51.460;7.158;2022-07-21T07:24:59;23.10;65.20
13569;DHT22;6856;51.460;7.158;2022-07-21T07:27:33;23.10;65.10
13569;DHT22;6856;51.460;7.158;2022-07-21T07:30:09;23.10;64.40
13569;DHT22;6856;51.460;7.158;2022-07-21T07:32:44;23.20;64.60
13569;DHT22;6856;51.460;7.158;2022-07-21T07:35:21;23.20;64.60
13569;DHT22;6856;51.460;7.158;2022-07-21T07:37:56;23.30;64.50
13569;DHT22;6856;51.460;7.158;2022-07-21T07:40:30;23.30;64.30
13569;DHT22;6856;51.460;7.158;2022-07-21T07:43:04;23.40;64.30
13569;DHT22;6856;51.460;7.158;2022-07-21T07:45:40;23.40;64.40
13569;DHT22;6856;51.460;7.158;2022-07-21T07:48:14;23.50;64.20
13569;DHT22;6856;51.460;7.158;2022-07-21T07:50:50;23.60;64.60
13569;DHT22;6856;51.460;7.158;2022-07-21T07:53:24;23.70;64.00
13569;DHT22;6856;51.460;7.158;2022-07-21T07:55:59;23.90;63.70
13569;DHT22;6856;51.460;7.158;2022-07-21T07:58:34;23.90;63.60
13569;DHT22;6856;51.460;7.158;2022-07-21T08:01:09;24.00;63.20
13569;DHT22;6856;51.460;7.158;2022-07-21T08:03:47;24.10;62.80
13569;DHT22;6856;51.460;7.158;2022-07-21T08:06:23;24.20;62.10
13569;DHT22;6856;51.460;7.158;2022-07-21T08:08:58;24.20;61.60
13569;DHT22;6856;51.460;7.158;2022-07-21T08:11:33;24.20;61.40
13569;DHT22;6856;51.460;7.158;2022-07-21T08:14:07;24.20;61.40
13569;DHT22;6856;51.460;7.158;2022-07-21T08:16:42;24.20;61.30
13569;DHT22;6856;51.460;7.158;2022-07-21T08:19:17;24.20;61.50
13569;DHT22;6856;51.460;7.158;2022-07-21T08:21:53;24.20;61.70
13569;DHT22;6856;51.460;7.158;2022-07-21T08:24:46;24.30;61.20
13569;DHT22;6856;51.460;7.158;2022-07-21T08:27:20;24.30;61.20
13569;DHT22;6856;51.460;7.158;2022-07-21T08:29:55;24.30;61.00
13569;DHT22;6856;51.460;7.158;2022-07-21T08:32:29;24.40;61.00
13569;DHT22;6856;51.460;7.158;2022-07-21T08:35:05;24.50;61.20
13569;DHT22;6856;51.460;7.158;2022-07-21T08:37:51;24.50;60.70
13569;DHT22;6856;51.460;7.158;2022-07-21T08:40:28;24.50;60.10
13569;DHT22;6856;51.460;7.158;2022-07-21T08:43:05;24.60;59.90
13569;DHT22;6856;51.460;7.158;2022-07-21T08:45:42;24.70;60.00
13569;DHT22;6856;51.460;7.158;2022-07-21T08:48:20;24.70;60.00
13569;DHT22;6856;51.460;7.158;2022-07-21T08:50:58;24.70;59.60
13569;DHT22;6856;51.460;7.158;2022-07-21T08:53:33;24.70;59.80
13569;DHT22;6856;51.460;7.158;2022-07-21T08:56:08;24.80;59.50
13569;DHT22;6856;51.460;7.158;2022-07-21T08:58:42;24.80;59.20
13569;DHT22;6856;51.460;7.158;2022-07-21T09:01:17;24.80;59.10
13569;DHT22;6856;51.460;7.158;2022-07-21T09:03:53;24.90;59.20
13569;DHT22;6856;51.460;7.158;2022-07-21T09:06:27;24.90;59.00
13569;DHT22;6856;51.460;7.158;2022-07-21T09:09:18;24.90;58.90
13569;DHT22;6856;51.460;7.158;2022-07-21T09:11:54;24.90;58.80
13569;DHT22;6856;51.460;7.158;2022-07-21T09:14:32;25.00;58.80
13569;DHT22;6856;51.460;7.158;2022-07-21T09:17:07;25.00;59.00
13569;DHT22;6856;51.460;7.158;2022-07-21T09:19:44;25.00;58.80
13569;DHT22;6856;51.460;7.158;2022-07-21T09:22:21;25.00;58.60
13569;DHT22;6856;51.460;7.158;2022-07-21T09:24:57;25.10;58.40
13569;DHT22;6856;51.460;7.158;2022-07-21T09:27:33;25.10;58.20
13569;DHT22;6856;51.460;7.158;2022-07-21T09:30:10;25.10;58.20
13569;DHT22;6856;51.460;7.158;2022-07-21T09:32:45;25.20;58.00
13569;DHT22;6856;51.460;7.158;2022-07-21T09:35:23;25.20;57.70
13569;DHT22;6856;51.460;7.158;2022-07-21T09:37:57;25.20;57.60
13569;DHT22;6856;51.460;7.158;2022-07-21T09:40:48;25.20;57.60
13569;DHT22;6856;51.460;7.158;2022-07-21T09:43:30;25.20;57.40
13569;DHT22;6856;51.460;7.158;2022-07-21T09:46:06;25.30;57.40
13569;DHT22;6856;51.460;7.158;2022-07-21T09:48:43;25.30;57.40
13569;DHT22;6856;51.460;7.158;2022-07-21T09:51:42;25.30;57.20
13569;DHT22;6856;51.460;7.158;2022-07-21T09:54:21;25.30;57.20
13569;DHT22;6856;51.460;7.158;2022-07-21T09:56:57;25.30;57.20
13569;DHT22;6856;51.460;7.158;2022-07-21T09:59:35;25.30;56.90
13569;DHT22;6856;51.460;7.158;2022-07-21T10:02:32;25.30;56.90
13569;DHT22;6856;51.460;7.158;2022-07-21T10:05:09;25.30;57.00
13569;DHT22;6856;51.460;7.158;2022-07-21T10:07:47;25.40;56.70
13569;DHT22;6856;51.460;7.158;2022-07-21T10:10:23;25.40;56.70
13569;DHT22;6856;51.460;7.158;2022-07-21T10:13:19;25.40;56.60
13569;DHT22;6856;51.460;7.158;2022-07-21T10:15:53;25.50;56.70
13569;DHT22;6856;51.460;7.158;2022-07-21T10:18:32;25.40;56.50
13569;DHT22;6856;51.460;7.158;2022-07-21T10:21:18;25.40;56.10
13569;DHT22;6856;51.460;7.158;2022-07-21T10:24:00;25.40;56.10
13569;DHT22;6856;51.460;7.158;2022-07-21T10:26:34;25.40;56.10
13569;DHT22;6856;51.460;7.158;2022-07-21T10:29:10;25.40;56.20
13569;DHT22;6856;51.460;7.158;2022-07-21T10:31:45;25.50;56.00
13569;DHT22;6856;51.460;7.158;2022-07-21T10:34:34;25.40;55.70
13569;DHT22;6856;51.460;7.158;2022-07-21T10:37:09;25.40;55.60
13569;DHT22;6856;51.460;7.158;2022-07-21T10:39:44;25.40;55.80
13569;DHT22;6856;51.460;7.158;2022-07-21T10:42:19;25.40;55.60
13569;DHT22;6856;51.460;7.158;2022-07-21T10:44:54;25.40;55.40
13569;DHT22;6856;51.460;7.158;2022-07-21T10:47:30;25.40;55.20
13569;DHT22;6856;51.460;7.158;2022-07-21T10:50:10;25.40;55.50
13569;DHT22;6856;51.460;7.158;2022-07-21T10:53:04;25.40;55.50
13569;DHT22;6856;51.460;7.158;2022-07-21T10:55:47;25.40;55.50
13569;DHT22;6856;51.460;7.158;2022-07-21T10:58:26;25.40;55.40
13569;DHT22;6856;51.460;7.158;2022-07-21T11:01:05;25.30;55.30
13569;DHT22;6856;51.460;7.158;2022-07-21T11:04:07;25.30;55.70
13569;DHT22;6856;51.460;7.158;2022-07-21T11:06:43;25.30;55.90
13569;DHT22;6856;51.460;7.158;2022-07-21T11:09:18;25.20;55.90
13569;DHT22;6856;51.460;7.158;2022-07-21T11:12:00;25.20;56.10
13569;DHT22;6856;51.460;7.158;2022-07-21T11:14:38;25.10;56.30
13569;DHT22;6856;51.460;7.158;2022-07-21T11:17:29;25.10;56.60
13569;DHT22;6856;51.460;7.158;2022-07-21T11:20:12;25.00;56.90
13569;DHT22;6856;51.460;7.158;2022-07-21T11:22:53;25.00;57.00
13569;DHT22;6856;51.460;7.158;2022-07-21T11:25:35;24.90;57.20
13569;DHT22;6856;51.460;7.158;2022-07-21T11:28:16;24.90;57.30
13569;DHT22;6856;51.460;7.158;2022-07-21T11:31:06;24.80;57.60
13569;DHT22;6856;51.460;7.158;2022-07-21T11:33:47;24.80;57.80
13569;DHT22;6856;51.460;7.158;2022-07-21T11:36:26;24.70;57.70
13569;DHT22;6856;51.460;7.158;2022-07-21T11:39:05;24.70;58.00
13569;DHT22;6856;51.460;7.158;2022-07-21T11:41:43;24.60;58.10
13569;DHT22;6856;51.460;7.158;2022-07-21T11:44:23;24.50;58.20
13569;DHT22;6856;51.460;7.158;2022-07-21T11:47:01;24.50;58.70
13569;DHT22;6856;51.460;7.158;2022-07-21T11:49:39;24.50;58.90
13569;DHT22;6856;51.460;7.158;2022-07-21T11:52:15;24.40;59.10
13569;DHT22;6856;51.460;7.158;2022-07-21T11:54:52;24.40;59.20
13569;DHT22;6856;51.460;7.158;2022-07-21T11:57:28;24.40;59.40
13569;DHT22;6856;51.460;7.158;2022-07-21T12:00:04;24.30;59.40
13569;DHT22;6856;51.460;7.158;2022-07-21T12:02:41;24.30;59.50
13569;DHT22;6856;51.460;7.158;2022-07-21T12:05:17;24.30;59.80
13569;DHT22;6856;51.460;7.158;2022-07-21T12:07:52;24.30;60.00
13569;DHT22;6856;51.460;7.158;2022-07-21T12:10:28;24.20;60.20
13569;DHT22;6856;51.460;7.158;2022-07-21T12:13:05;24.20;60.30
13569;DHT22;6856;51.460;7.158;2022-07-21T12:15:40;24.20;60.30
13569;DHT22;6856;51.460;7.158;2022-07-21T12:18:20;24.10;60.20
13569;DHT22;6856;51.460;7.158;2022-07-21T12:21:03;24.10;60.40
13569;DHT22;6856;51.460;7.158;2022-07-21T12:23:39;24.00;60.60
13569;DHT22;6856;51.460;7.158;2022-07-21T12:26:21;24.00;60.60
13569;DHT22;6856;51.460;7.158;2022-07-21T12:28:56;23.90;61.10
13569;DHT22;6856;51.460;7.158;2022-07-21T12:31:34;23.90;61.00
13569;DHT22;6856;51.460;7.158;2022-07-21T12:34:13;23.90;61.60
13569;DHT22;6856;51.460;7.158;2022-07-21T12:37:01;23.80;61.90
13569;DHT22;6856;51.460;7.158;2022-07-21T12:40:05;23.80;62.30
13569;DHT22;6856;51.460;7.158;2022-07-21T12:42:40;23.80;62.90
13569;DHT22;6856;51.460;7.158;2022-07-21T12:45:16;23.80;62.70
13569;DHT22;6856;51.460;7.158;2022-07-21T12:48:08;23.80;62.80
13569;DHT22;6856;51.460;7.158;2022-07-21T12:51:01;23.80;63.80
13569;DHT22;6856;51.460;7.158;2022-07-21T12:53:46;23.80;64.40
13569;DHT22;6856;51.460;7.158;2022-07-21T12:56:24;23.80;63.60
13569;DHT22;6856;51.460;7.158;2022-07-21T12:59:00;23.80;63.40
13569;DHT22;6856;51.460;7.158;2022-07-21T13:01:36;23.80;63.30
13569;DHT22;6856;51.460;7.158;2022-07-21T13:04:11;23.80;63.30
13569;DHT22;6856;51.460;7.158;2022-07-21T13:06:45;23.80;63.50
13569;DHT22;6856;51.460;7.158;2022-07-21T13:09:21;23.80;63.80
13569;DHT22;6856;51.460;7.158;2022-07-21T13:11:56;23.80;64.00
13569;DHT22;6856;51.460;7.158;2022-07-21T13:14:31;23.80;63.70
13569;DHT22;6856;51.460;7.158;2022-07-21T13:17:09;23.80;63.80
13569;DHT22;6856;51.460;7.158;2022-07-21T13:19:43;23.80;63.70
13569;DHT22;6856;51.460;7.158;2022-07-21T13:22:18;23.70;63.70
13569;DHT22;6856;51.460;7.158;2022-07-21T13:24:54;23.70;63.90
13569;DHT22;6856;51.460;7.158;2022-07-21T13:27:32;23.70;64.10
13569;DHT22;6856;51.460;7.158;2022-07-21T13:30:10;23.70;64.30
13569;DHT22;6856;51.460;7.158;2022-07-21T13:32:45;23.70;64.10
13569;DHT22;6856;51.460;7.158;2022-07-21T13:35:20;23.70;63.90
13569;DHT22;6856;51.460;7.158;2022-07-21T13:37:59;23.70;64.00
13569;DHT22;6856;51.460;7.158;2022-07-21T13:40:42;23.60;63.90
13569;DHT22;6856;51.460;7.158;2022-07-21T13:43:40;23.60;64.10
13569;DHT22;6856;51.460;7.158;2022-07-21T13:46:15;23.60;63.80
13569;DHT22;6856;51.460;7.158;2022-07-21T13:48:50;23.60;63.80
13569;DHT22;6856;51.460;7.158;2022-07-21T13:51:24;23.60;63.70
13569;DHT22;6856;51.460;7.158;2022-07-21T13:53:59;23.50;63.60
13569;DHT22;6856;51.460;7.158;2022-07-21T13:56:35;23.40;63.60
13569;DHT22;6856;51.460;7.158;2022-07-21T13:59:09;23.40;63.80
13569;DHT22;6856;51.460;7.158;2022-07-21T14:01:44;23.40;64.00
13569;DHT22;6856;51.460;7.158;2022-07-21T14:04:19;23.30;63.90
13569;DHT22;6856;51.460;7.158;2022-07-21T14:06:54;23.30;63.80
13569;DHT22;6856;51.460;7.158;2022-07-21T14:09:29;23.30;64.00
13569;DHT22;6856;51.460;7.158;2022-07-21T14:12:05;23.20;63.90
13569;DHT22;6856;51.460;7.158;2022-07-21T14:14:40;23.20;63.80
13569;DHT22;6856;51.460;7.158;2022-07-21T14:17:20;23.10;63.60
13569;DHT22;6856;51.460;7.158;2022-07-21T14:19:54;23.10;63.50
13569;DHT22;6856;51.460;7.158;2022-07-21T14:22:29;23.00;63.40
13569;DHT22;6856;51.460;7.158;2022-07-21T14:25:05;23.00;63.60
13569;DHT22;6856;51.460;7.158;2022-07-21T14:27:56;22.90;64.00
13569;DHT22;6856;51.460;7.158;2022-07-21T14:30:31;22.90;64.00
13569;DHT22;6856;51.460;7.158;2022-07-21T14:33:07;22.90;64.00
13569;DHT22;6856;51.460;7.158;2022-07-21T14:35:41;22.80;64.00
13569;DHT22;6856;51.460;7.158;2022-07-21T14:38:16;22.80;64.20
13569;DHT22;6856;51.460;7.158;2022-07-21T14:40:52;22.80;64.30
13569;DHT22;6856;51.460;7.158;2022-07-21T14:43:29;22.80;64.20
13569;DHT22;6856;51.460;7.158;2022-07-21T14:46:04;22.80;64.30
13569;DHT22;6856;51.460;7.158;2022-07-21T14:48:39;22.80;64.70
13569;DHT22;6856;51.460;7.158;2022-07-21T14:51:13;22.70;64.80
13569;DHT22;6856;51.460;7.158;2022-07-21T14:53:48;22.70;64.90
13569;DHT22;6856;51.460;7.158;2022-07-21T14:56:23;22.70;64.80
13569;DHT22;6856;51.460;7.158;2022-07-21T14:59:19;22.70;64.70
13569;DHT22;6856;51.460;7.158;2022-07-21T15:01:55;22.70;64.60
13569;DHT22;6856;51.460;7.158;2022-07-21T15:04:29;22.70;64.50
13569;DHT22;6856;51.460;7.158;2022-07-21T15:07:04;22.60;64.90
13569;DHT22;6856;51.460;7.158;2022-07-21T15:09:38;22.60;64.90
13569;DHT22;6856;51.460;7.158;2022-07-21T15:12:13;22.60;65.10
13569;DHT22;6856;51.460;7.158;2022-07-21T15:14:49;22.60;65.50
13569;DHT22;6856;51.460;7.158;2022-07-21T15:17:24;22.60;65.60
13569;DHT22;6856;51.460;7.158;2022-07-21T15:20:01;22.60;65.20
13569;DHT22;6856;51.460;7.158;2022-07-21T15:22:44;22.60;65.30
13569;DHT22;6856;51.460;7.158;2022-07-21T15:25:19;22.60;65.50
13569;DHT22;6856;51.460;7.158;2022-07-21T15:27:58;22.60;65.60
13569;DHT22;6856;51.460;7.158;2022-07-21T15:30:34;22.60;65.70
13569;DHT22;6856;51.460;7.158;2022-07-21T15:33:09;22.60;65.70
13569;DHT22;6856;51.460;7.158;2022-07-21T15:35:45;22.60;65.30
13569;DHT22;6856;51.460;7.158;2022-07-21T15:38:21;22.60;65.30
13569;DHT22;6856;51.460;7.158;2022-07-21T15:40:56;22.60;65.40
13569;DHT22;6856;51.460;7.158;2022-07-21T15:43:30;22.60;65.30
13569;DHT22;6856;51.460;7.158;2022-07-21T15:46:09;22.50;65.40
13569;DHT22;6856;51.460;7.158;2022-07-21T15:48:43;22.50;65.10
13569;DHT22;6856;51.460;7.158;2022-07-21T15:51:17;22.50;65.50
13569;DHT22;6856;51.460;7.158;2022-07-21T15:53:53;22.50;65.70
13569;DHT22;6856;51.460;7.158;2022-07-21T15:56:27;22.50;65.90
13569;DHT22;6856;51.460;7.158;2022-07-21T15:59:02;22.50;65.80
13569;DHT22;6856;51.460;7.158;2022-07-21T16:01:55;22.50;65.90
13569;DHT22;6856;51.460;7.158;2022-07-21T16:04:31;22.50;65.60
13569;DHT22;6856;51.460;7.158;2022-07-21T16:07:06;22.50;66.00
13569;DHT22;6856;51.460;7.158;2022-07-21T16:09:42;22.50;65.80
13569;DHT22;6856;51.460;7.158;2022-07-21T16:12:17;22.50;66.00
13569;DHT22;6856;51.460;7.158;2022-07-21T16:14:52;22.50;65.80
13569;DHT22;6856;51.460;7.158;2022-07-21T16:17:28;22.50;66.10
13569;DHT22;6856;51.460;7.158;2022-07-21T16:20:03;22.40;65.80
13569;DHT22;6856;51.460;7.158;2022-07-21T16:22:45;22.40;65.80
13569;DHT22;6856;51.460;7.158;2022-07-21T16:25:22;22.40;65.70
13569;DHT22;6856;51.460;7.158;2022-07-21T16:27:58;22.40;65.80
13569;DHT22;6856;51.460;7.158;2022-07-21T16:30:34;22.40;65.70
13569;DHT22;6856;51.460;7.158;2022-07-21T16:33:10;22.30;65.90
13569;DHT22;6856;51.460;7.158;2022-07-21T16:35:45;22.40;66.20
13569;DHT22;6856;51.460;7.158;2022-07-21T16:38:19;22.30;66.10
13569;DHT22;6856;51.460;7.158;2022-07-21T16:40:54;22.30;66.20
13569;DHT22;6856;51.460;7.158;2022-07-21T16:43:29;22.30;65.90